createdAt,value
2018-10-19T00:02:03.339Z,2.33
2018-10-19T00:04:32.175Z,2.43
2018-10-19T00:07:01.007Z,1.93
2018-10-19T00:09:29.807Z,2.03
2018-10-19T00:11:58.619Z,2.23
2018-10-19T00:14:27.895Z,2.40
2018-10-19T00:16:56.775Z,1.97
2018-10-19T00:19:25.606Z,2.23
2018-10-19T00:21:54.404Z,2.20
2018-10-19T00:24:23.211Z,1.93
2018-10-19T00:26:52.092Z,2.17
2018-10-19T00:29:21.242Z,2.33
2018-10-19T00:31:50.071Z,2.07
2018-10-19T00:34:18.862Z,2.27
2018-10-19T00:36:47.955Z,2.17
2018-10-19T00:39:17.073Z,2.23
2018-10-19T00:41:45.832Z,2.40
2018-10-19T00:44:14.976Z,2.43
2018-10-19T00:46:43.796Z,2.10
2018-10-19T00:49:12.580Z,2.30
2018-10-19T00:51:41.391Z,2.77
2018-10-19T00:54:10.183Z,2.70
2018-10-19T00:56:38.969Z,2.00
2018-10-19T00:59:08.116Z,2.07
2018-10-19T01:01:36.853Z,2.00
2018-10-19T01:04:06.654Z,2.53
2018-10-19T01:06:35.527Z,2.70
2018-10-19T01:09:05.981Z,2.67
2018-10-19T01:11:34.785Z,2.30
2018-10-19T01:14:03.607Z,2.07
2018-10-19T01:16:32.407Z,2.37
2018-10-19T01:19:01.206Z,2.00
2018-10-19T01:21:30.188Z,2.63
2018-10-19T01:23:58.981Z,2.20
2018-10-19T01:26:27.779Z,2.73
2018-10-19T01:28:56.703Z,2.07
2018-10-19T01:31:25.413Z,2.17
2018-10-19T01:33:54.239Z,2.43
2018-10-19T01:36:27.227Z,2.57
2018-10-19T01:38:56.048Z,2.00
2018-10-19T01:41:25.298Z,1.97
2018-10-19T01:43:54.419Z,2.60
2018-10-19T01:46:23.218Z,2.00
2018-10-19T01:48:52.010Z,2.33
2018-10-19T01:51:20.857Z,2.40
2018-10-19T01:53:49.676Z,2.17
2018-10-19T01:56:18.463Z,2.07
2018-10-19T01:58:47.271Z,2.17
2018-10-19T02:01:16.084Z,1.80
2018-10-19T02:03:44.881Z,1.97
2018-10-19T02:06:14.022Z,1.90
2018-10-19T02:08:42.849Z,1.93
2018-10-19T02:11:11.737Z,2.20
2018-10-19T02:13:40.498Z,1.40
2018-10-19T02:16:09.315Z,1.97
2018-10-19T02:18:38.130Z,1.87
2018-10-19T02:21:07.016Z,2.20
2018-10-19T02:23:35.818Z,1.87
2018-10-19T02:26:04.670Z,2.03
2018-10-19T02:28:33.659Z,1.80
2018-10-19T02:31:02.471Z,2.10
2018-10-19T02:33:31.287Z,2.60
2018-10-19T02:36:00.087Z,2.27
2018-10-19T02:38:28.948Z,1.60
2018-10-19T02:40:57.884Z,2.80
2018-10-19T02:43:26.920Z,2.90
2018-10-19T02:45:55.751Z,2.27
2018-10-19T02:48:24.563Z,2.10
2018-10-19T02:50:53.816Z,1.80
2018-10-19T02:53:22.604Z,2.43
2018-10-19T02:55:51.398Z,1.90
2018-10-19T02:58:20.209Z,2.40
2018-10-19T03:00:49.019Z,1.43
2018-10-19T03:03:17.938Z,2.07
2018-10-19T03:05:46.676Z,1.97
2018-10-19T03:08:15.587Z,2.13
2018-10-19T03:10:44.384Z,2.20
2018-10-19T03:13:13.299Z,2.50
2018-10-19T03:15:42.113Z,1.60
2018-10-19T03:18:10.955Z,2.17
2018-10-19T03:20:39.763Z,1.90
2018-10-19T03:23:08.591Z,2.73
2018-10-19T03:25:37.382Z,1.93
2018-10-19T03:28:06.513Z,1.80
2018-10-19T03:30:35.302Z,2.67
2018-10-19T03:33:13.149Z,1.57
2018-10-19T03:35:41.907Z,1.47
2018-10-19T03:38:10.710Z,2.27
2018-10-19T03:40:39.508Z,1.97
2018-10-19T03:43:08.310Z,1.80
2018-10-19T03:45:37.659Z,1.80
2018-10-19T03:48:06.466Z,2.60
2018-10-19T03:50:35.276Z,1.63
2018-10-19T03:53:04.094Z,2.37
2018-10-19T03:55:32.986Z,1.80
2018-10-19T03:58:01.783Z,2.07
2018-10-19T04:00:30.607Z,1.80
2018-10-19T04:02:59.415Z,2.40
2018-10-19T04:05:28.237Z,2.20
2018-10-19T04:07:57.041Z,2.17
2018-10-19T04:10:25.844Z,2.40
2018-10-19T04:12:54.649Z,1.83
2018-10-19T04:15:23.480Z,1.62
2018-10-19T04:17:52.728Z,1.93
2018-10-19T04:20:21.698Z,2.00
2018-10-19T04:22:54.922Z,2.20
2018-10-19T04:25:23.735Z,2.90
2018-10-19T04:27:52.568Z,2.23
2018-10-19T04:30:21.404Z,2.50
2018-10-19T04:32:50.213Z,2.23
2018-10-19T04:35:19.020Z,2.50
2018-10-19T04:37:48.349Z,2.30
2018-10-19T04:40:22.271Z,2.23
2018-10-19T04:42:51.171Z,2.40
2018-10-19T04:45:20.358Z,2.17
2018-10-19T04:47:49.688Z,2.00
2018-10-19T04:50:18.597Z,2.40
2018-10-19T04:52:47.383Z,2.20
2018-10-19T04:55:18.894Z,2.23
2018-10-19T04:57:48.299Z,2.67
2018-10-19T05:00:18.618Z,2.33
2018-10-19T05:02:48.140Z,2.23
2018-10-19T05:05:16.915Z,2.10
2018-10-19T05:07:45.703Z,2.50
2018-10-19T05:10:14.682Z,2.30
2018-10-19T05:12:43.562Z,2.10
2018-10-19T05:15:12.637Z,2.33
2018-10-19T05:17:41.447Z,1.97
2018-10-19T05:20:12.269Z,2.10
2018-10-19T05:22:41.003Z,1.90
2018-10-19T05:25:11.415Z,2.17
2018-10-19T05:27:40.239Z,2.03
2018-10-19T05:30:11.469Z,2.40
2018-10-19T05:32:41.023Z,2.00
2018-10-19T05:35:09.883Z,2.30
2018-10-19T05:37:39.664Z,2.40
2018-10-19T05:40:10.324Z,3.05
2018-10-19T05:42:39.456Z,2.70
2018-10-19T05:45:11.465Z,2.02
2018-10-19T05:47:40.433Z,1.83
2018-10-19T05:50:10.898Z,2.50
2018-10-19T05:52:39.870Z,2.07
2018-10-19T05:55:09.678Z,2.40
2018-10-19T05:57:38.700Z,1.77
2018-10-19T06:05:07.829Z,1.97
2018-10-19T06:07:36.615Z,2.07
2018-10-19T06:10:06.300Z,2.70
2018-10-19T06:12:35.156Z,2.40
2018-10-19T06:15:04.088Z,2.03
2018-10-19T06:17:32.870Z,2.33
2018-10-19T06:20:01.771Z,2.60
2018-10-19T06:22:30.543Z,2.30
2018-10-19T06:24:59.382Z,2.27
2018-10-19T06:27:28.684Z,1.93
2018-10-19T06:29:57.523Z,3.27
2018-10-19T06:32:26.327Z,2.13
2018-10-19T06:34:55.183Z,3.00
2018-10-19T06:37:24.012Z,2.50
2018-10-19T06:39:52.818Z,3.10
2018-10-19T06:42:21.876Z,2.50
2018-10-19T06:44:50.699Z,2.73
2018-10-19T06:47:19.611Z,2.87
2018-10-19T06:49:48.715Z,2.80
2018-10-19T06:52:17.910Z,2.93
2018-10-19T06:54:46.720Z,2.97
2018-10-19T06:57:15.619Z,2.13
2018-10-19T06:59:44.412Z,2.97
2018-10-19T07:02:13.379Z,3.00
2018-10-19T07:04:42.053Z,2.90
2018-10-19T07:07:10.852Z,3.53
2018-10-19T07:09:39.642Z,2.50
2018-10-19T07:12:09.231Z,2.57
2018-10-19T07:14:37.985Z,2.20
2018-10-19T07:17:06.834Z,2.10
2018-10-19T07:19:35.635Z,3.00
2018-10-19T07:22:04.533Z,2.70
2018-10-19T07:24:33.351Z,2.43
2018-10-19T07:27:02.258Z,2.63
2018-10-19T07:29:31.092Z,2.23
2018-10-19T07:31:59.943Z,2.33
2018-10-19T07:34:29.019Z,2.40
2018-10-19T07:36:57.836Z,2.27
2018-10-19T07:39:26.649Z,3.10
2018-10-19T07:41:55.517Z,2.70
2018-10-19T07:44:24.295Z,2.80
2018-10-19T07:46:53.113Z,2.90
2018-10-19T07:49:21.915Z,2.53
2018-10-19T07:51:50.738Z,2.67
2018-10-19T07:54:20.079Z,2.50
2018-10-19T07:56:49.343Z,2.33
2018-10-19T07:59:18.140Z,3.30
2018-10-19T08:01:46.972Z,2.70
2018-10-19T08:04:15.770Z,2.87
2018-10-19T08:06:44.626Z,3.00
2018-10-19T08:09:13.469Z,2.57
2018-10-19T08:11:42.294Z,2.60
2018-10-19T08:14:11.199Z,6.40
2018-10-19T08:16:39.930Z,3.50
2018-10-19T08:19:09.451Z,2.40
2018-10-19T08:21:38.273Z,2.20
2018-10-19T08:24:07.108Z,2.97
2018-10-19T08:26:35.927Z,2.73
2018-10-19T08:29:05.135Z,3.03
2018-10-19T08:31:33.949Z,2.83
2018-10-19T08:34:03.019Z,3.20
2018-10-19T08:36:31.822Z,3.50
2018-10-19T08:39:00.650Z,4.17
2018-10-19T08:41:29.866Z,3.40
2018-10-19T08:43:58.603Z,3.57
2018-10-19T08:46:32.707Z,3.00
2018-10-19T08:49:04.607Z,3.13
2018-10-19T08:51:33.412Z,3.00
2018-10-19T08:54:02.206Z,2.80
2018-10-19T08:56:31.664Z,2.77
2018-10-19T08:59:00.770Z,2.63
2018-10-19T09:01:30.448Z,2.93
2018-10-19T09:03:59.349Z,2.50
2018-10-19T09:06:28.128Z,2.80
2018-10-19T09:08:56.975Z,2.90
2018-10-19T09:11:26.017Z,2.80
2018-10-19T09:13:54.751Z,2.70
2018-10-19T09:16:24.516Z,2.43
2018-10-19T09:18:53.305Z,2.67
2018-10-19T09:21:22.801Z,2.60
2018-10-19T09:23:51.638Z,2.47
2018-10-19T09:26:20.454Z,2.72
2018-10-19T09:28:49.282Z,2.33
2018-10-19T09:31:18.134Z,3.37
2018-10-19T09:33:46.950Z,2.40
2018-10-19T09:36:15.899Z,2.80
2018-10-19T09:38:44.617Z,2.90
2018-10-19T09:41:13.479Z,2.63
2018-10-19T09:43:42.807Z,3.70
2018-10-19T09:46:11.619Z,2.20
2018-10-19T09:48:40.459Z,2.70
2018-10-19T09:51:09.325Z,2.83
2018-10-19T09:53:38.087Z,2.50
2018-10-19T09:56:07.048Z,2.10
2018-10-19T09:58:36.167Z,2.77
2018-10-19T10:01:09.342Z,2.57
2018-10-19T10:03:38.237Z,2.70
2018-10-19T10:06:07.070Z,2.80
2018-10-19T10:08:35.855Z,2.73
2018-10-19T10:11:04.909Z,3.10
2018-10-19T10:13:33.700Z,2.80
2018-10-19T10:16:02.494Z,2.83
2018-10-19T10:18:34.305Z,2.60
2018-10-19T10:21:03.158Z,2.80
2018-10-19T10:23:32.025Z,2.60
2018-10-19T10:26:01.539Z,2.73
2018-10-19T10:28:30.391Z,3.17
2018-10-19T10:30:59.253Z,2.63
2018-10-19T10:33:28.059Z,3.10
2018-10-19T10:35:56.852Z,3.07
2018-10-19T10:38:25.655Z,2.70
2018-10-19T10:40:54.522Z,2.67
2018-10-19T10:43:23.323Z,2.43
2018-10-19T10:45:52.108Z,3.13
2018-10-19T10:48:21.362Z,3.07
2018-10-19T10:50:50.171Z,2.47
2018-10-19T10:53:19.218Z,2.30
2018-10-19T10:55:48.069Z,2.50
2018-10-19T10:58:16.951Z,2.67
2018-10-19T11:00:46.181Z,2.33
2018-10-19T11:03:15.370Z,2.20
2018-10-19T11:05:44.557Z,2.00
2018-10-19T11:08:13.432Z,2.20
2018-10-19T11:10:42.794Z,1.80
2018-10-19T11:13:11.612Z,1.70
2018-10-19T11:15:40.532Z,2.20
2018-10-19T11:18:09.565Z,2.17
2018-10-19T11:20:38.367Z,2.50
2018-10-19T11:23:07.158Z,3.33
2018-10-19T11:25:35.975Z,2.30
2018-10-19T11:28:04.901Z,2.30
2018-10-19T11:30:33.656Z,1.23
2018-10-19T11:33:02.900Z,1.70
2018-10-19T11:35:31.721Z,1.73
2018-10-19T11:38:00.609Z,2.43
2018-10-19T11:40:30.836Z,2.07
2018-10-19T11:42:59.636Z,2.00
2018-10-19T11:45:29.839Z,2.10
2018-10-19T11:47:58.634Z,1.70
2018-10-19T11:50:27.565Z,1.60
2018-10-19T11:52:56.382Z,1.80
2018-10-19T11:55:25.743Z,1.97
2018-10-19T11:57:54.705Z,2.00
2018-10-19T12:00:23.504Z,1.60
2018-10-19T12:02:52.792Z,1.73
2018-10-19T12:05:21.614Z,2.03
2018-10-19T12:07:50.418Z,2.17
2018-10-19T12:10:34.435Z,1.47
2018-10-19T12:13:03.911Z,1.27
2018-10-19T12:15:32.711Z,2.07
2018-10-19T12:18:01.549Z,1.87
2018-10-19T12:20:30.367Z,1.80
2018-10-19T12:22:59.230Z,1.60
2018-10-19T12:25:28.053Z,1.67
2018-10-19T12:27:56.883Z,1.83
2018-10-19T12:30:25.691Z,1.83
2018-10-19T12:32:54.990Z,2.40
2018-10-19T12:35:23.886Z,1.90
2018-10-19T12:37:52.653Z,1.77
2018-10-19T12:40:21.494Z,2.93
2018-10-19T12:42:50.328Z,1.77
2018-10-19T12:46:41.553Z,2.00
2018-10-19T12:49:11.287Z,1.47
2018-10-19T12:51:40.746Z,1.80
2018-10-19T12:54:10.225Z,1.47
2018-10-19T12:56:38.996Z,1.83
2018-10-19T12:59:08.125Z,2.87
2018-10-19T13:01:37.001Z,2.50
2018-10-19T13:04:06.490Z,1.60
2018-10-19T13:06:36.246Z,1.70
2018-10-19T13:09:11.260Z,1.63
2018-10-19T13:11:40.042Z,1.20
2018-10-19T13:14:08.897Z,1.33
2018-10-19T13:16:37.744Z,1.13
2018-10-19T13:19:06.587Z,1.70
2018-10-19T13:21:35.404Z,1.60
2018-10-19T13:24:04.441Z,1.80
2018-10-19T13:26:33.283Z,1.63
2018-10-19T13:29:02.084Z,1.93
2018-10-19T13:31:31.382Z,1.30
2018-10-19T13:34:00.187Z,2.00
2018-10-19T13:36:28.984Z,1.30
2018-10-19T13:38:57.849Z,1.73
2018-10-19T13:41:26.663Z,1.53
2018-10-19T13:43:55.531Z,1.70
2018-10-19T13:46:24.327Z,1.67
2018-10-19T13:48:53.134Z,1.40
2018-10-19T13:51:21.978Z,1.67
2018-10-19T13:53:51.106Z,1.50
2018-10-19T13:56:20.019Z,1.83
2018-10-19T13:58:48.840Z,1.80
2018-10-19T14:01:17.672Z,2.70
2018-10-19T14:03:46.954Z,1.73
2018-10-19T14:06:16.269Z,1.60
2018-10-19T14:08:45.122Z,1.40
2018-10-19T14:11:13.999Z,2.50
2018-10-19T14:13:42.750Z,1.97
2018-10-19T14:16:11.848Z,1.80
2018-10-19T14:18:40.681Z,1.53
2018-10-19T14:21:09.577Z,1.50
2018-10-19T14:23:38.344Z,1.60
2018-10-19T14:26:07.126Z,1.57
2018-10-19T14:28:35.940Z,1.23
2018-10-19T14:31:04.784Z,1.67
2018-10-19T14:33:33.692Z,1.80
2018-10-19T14:36:02.365Z,1.60
2018-10-19T14:38:31.449Z,1.70
2018-10-19T14:41:00.280Z,1.60
2018-10-19T14:43:29.091Z,1.43
2018-10-19T14:45:57.968Z,1.43
2018-10-19T14:48:26.790Z,1.93
2018-10-19T14:50:55.707Z,1.20
2018-10-19T14:53:24.548Z,1.83
2018-10-19T14:55:53.365Z,2.83
2018-10-19T14:58:22.209Z,2.17
2018-10-19T15:00:51.478Z,2.27
2018-10-19T15:03:20.276Z,1.80
2018-10-19T15:05:49.088Z,2.00
2018-10-19T15:08:18.437Z,2.03
2018-10-19T15:10:47.653Z,1.37
2018-10-19T15:13:16.176Z,2.03
2018-10-19T15:15:45.526Z,1.50
2018-10-19T15:18:14.451Z,1.63
2018-10-19T15:20:43.246Z,1.90
2018-10-19T15:23:12.455Z,3.10
2018-10-19T15:25:41.270Z,1.70
2018-10-19T15:28:10.083Z,1.40
2018-10-19T15:30:38.975Z,1.90
2018-10-19T15:33:07.855Z,1.40
2018-10-19T15:35:36.679Z,1.37
2018-10-19T15:38:05.601Z,1.53
2018-10-19T15:40:34.434Z,1.70
2018-10-19T15:43:03.347Z,2.43
2018-10-19T15:45:32.531Z,1.97
2018-10-19T15:48:01.383Z,2.30
2018-10-19T15:50:30.259Z,3.37
2018-10-19T15:52:59.086Z,1.63
2018-10-19T15:55:28.732Z,1.80
2018-10-19T15:57:57.583Z,1.83
2018-10-19T16:00:27.374Z,1.80
2018-10-19T16:02:56.190Z,2.00
2018-10-19T16:05:25.398Z,2.37
2018-10-19T16:07:54.347Z,1.83
2018-10-19T16:10:23.548Z,1.93
2018-10-19T16:12:52.350Z,2.93
2018-10-19T16:15:21.190Z,2.40
2018-10-19T16:17:50.007Z,1.93
2018-10-19T16:20:18.853Z,2.07
2018-10-19T16:22:47.721Z,1.90
2018-10-19T16:25:16.549Z,1.57
2018-10-19T16:27:45.387Z,2.33
2018-10-19T16:30:14.488Z,2.53
2018-10-19T16:32:43.230Z,1.97
2018-10-19T16:35:12.062Z,2.20
2018-10-19T16:37:40.915Z,2.40
2018-10-19T16:40:09.719Z,2.40
2018-10-19T16:42:38.531Z,1.80
2018-10-19T16:45:09.045Z,2.13
2018-10-19T16:47:37.908Z,2.37
2018-10-19T16:50:08.056Z,2.08
2018-10-19T16:52:37.190Z,2.00
2018-10-19T16:55:06.111Z,2.13
2018-10-19T16:57:34.912Z,1.77
2018-10-19T17:00:03.844Z,4.27
2018-10-19T17:02:32.545Z,2.13
2018-10-19T17:05:01.436Z,2.33
2018-10-19T17:07:30.289Z,2.30
2018-10-19T17:09:59.350Z,2.23
2018-10-19T17:12:28.578Z,2.40
2018-10-19T17:14:57.837Z,3.37
2018-10-19T17:17:26.647Z,2.07
2018-10-19T17:19:55.478Z,2.50
2018-10-19T17:22:24.338Z,2.33
2018-10-19T17:24:53.319Z,2.60
2018-10-19T17:27:22.142Z,2.57
2018-10-19T17:29:51.274Z,2.17
2018-10-19T17:32:20.082Z,2.50
2018-10-19T17:34:48.874Z,2.50
2018-10-19T17:37:17.880Z,2.57
2018-10-19T17:39:46.626Z,2.33
2018-10-19T17:42:15.449Z,3.10
2018-10-19T17:44:44.264Z,2.80
2018-10-19T17:47:13.145Z,3.23
2018-10-19T17:49:41.896Z,3.00
2018-10-19T17:52:10.757Z,3.40
2018-10-19T17:54:39.562Z,3.67
2018-10-19T17:57:08.470Z,4.53
2018-10-19T17:59:37.555Z,4.20
2018-10-19T18:02:07.317Z,4.03
2018-10-19T18:04:36.269Z,5.20
2018-10-19T18:07:05.396Z,5.30
2018-10-19T18:09:34.256Z,4.87
2018-10-19T18:12:03.067Z,4.23
2018-10-19T18:14:32.334Z,5.70
2018-10-19T18:17:01.171Z,5.00
2018-10-19T18:19:30.017Z,5.70
2018-10-19T18:21:59.111Z,4.83
2018-10-19T18:24:28.196Z,5.80
2018-10-19T18:26:57.092Z,4.77
2018-10-19T18:29:25.939Z,4.77
2018-10-19T18:31:54.794Z,4.77
2018-10-19T18:34:23.593Z,5.03
2018-10-19T18:36:52.419Z,5.80
2018-10-19T18:39:21.482Z,5.13
2018-10-19T18:41:50.322Z,6.47
2018-10-19T18:44:19.420Z,6.40
2018-10-19T18:46:48.219Z,6.53
2018-10-19T18:49:17.024Z,5.73
2018-10-19T18:51:45.874Z,5.40
2018-10-19T18:54:14.684Z,5.37
2018-10-19T18:56:43.472Z,6.50
2018-10-19T18:59:12.357Z,6.10
2018-10-19T19:01:41.100Z,5.27
2018-10-19T19:04:10.043Z,6.27
2018-10-19T19:06:38.985Z,5.70
2018-10-19T19:09:10.691Z,5.60
2018-10-19T19:11:39.562Z,5.40
2018-10-19T19:14:08.556Z,5.47
2018-10-19T19:16:37.806Z,5.80
2018-10-19T19:19:07.184Z,6.10
2018-10-19T19:21:36.035Z,5.50
2018-10-19T19:24:10.263Z,5.67
2018-10-19T19:26:39.689Z,5.50
2018-10-19T19:29:08.595Z,4.97
2018-10-19T19:31:37.357Z,5.93
2018-10-19T19:34:11.619Z,6.30
2018-10-19T19:36:40.498Z,13.40
2018-10-19T19:39:09.892Z,7.60
2018-10-19T19:42:46.880Z,5.83
2018-10-19T19:45:16.089Z,4.97
2018-10-19T19:47:50.286Z,5.33
2018-10-19T19:50:19.081Z,5.40
2018-10-19T19:52:48.050Z,4.80
2018-10-19T19:55:16.917Z,5.57
2018-10-19T19:57:45.759Z,5.27
2018-10-19T20:00:14.698Z,5.22
2018-10-19T20:02:43.934Z,5.83
2018-10-19T20:05:12.837Z,5.47
2018-10-19T20:07:41.583Z,5.00
2018-10-19T20:10:10.458Z,5.63
2018-10-19T20:12:40.178Z,6.07
2018-10-19T20:15:09.779Z,5.90
2018-10-19T20:17:39.030Z,5.63
2018-10-19T20:20:10.311Z,5.53
2018-10-19T20:22:39.672Z,5.80
2018-10-19T20:25:11.138Z,5.55
2018-10-19T20:27:40.455Z,6.60
2018-10-19T20:30:12.503Z,5.73
2018-10-19T20:32:41.341Z,5.93
2018-10-19T20:35:10.441Z,7.07
2018-10-19T20:37:39.219Z,11.53
2018-10-19T20:40:10.077Z,6.70
2018-10-19T20:42:38.894Z,7.53
2018-10-19T20:45:15.222Z,6.40
2018-10-19T20:47:44.037Z,5.87
2018-10-19T20:50:12.934Z,6.20
2018-10-19T20:52:41.735Z,6.17
2018-10-19T20:55:10.567Z,7.03
2018-10-19T20:57:39.717Z,6.57
2018-10-19T21:00:09.480Z,6.72
2018-10-19T21:02:38.707Z,7.00
2018-10-19T21:05:09.483Z,6.22
2018-10-19T21:07:38.705Z,6.07
2018-10-19T21:10:12.193Z,6.17
2018-10-19T21:12:41.055Z,6.00
2018-10-19T21:15:11.584Z,5.97
2018-10-19T21:17:41.104Z,11.00
2018-10-19T21:20:11.217Z,10.70
2018-10-19T21:22:40.299Z,7.50
2018-10-19T21:25:11.134Z,8.18
2018-10-19T21:27:40.307Z,7.20
2018-10-19T21:30:11.001Z,6.40
2018-10-19T21:32:39.835Z,6.47
2018-10-19T21:35:08.836Z,7.10
2018-10-19T21:37:37.662Z,7.07
2018-10-19T21:40:08.508Z,7.42
2018-10-19T21:42:37.399Z,6.73
2018-10-19T21:45:08.310Z,7.58
2018-10-19T21:47:37.230Z,7.47
2018-10-19T21:50:08.596Z,7.35
2018-10-19T21:52:37.350Z,7.40
2018-10-19T21:55:09.095Z,7.50
2018-10-19T21:57:37.986Z,7.27
2018-10-19T22:00:09.488Z,7.33
2018-10-19T22:02:38.742Z,7.53
2018-10-19T22:05:09.091Z,7.90
2018-10-19T22:07:37.932Z,8.70
2018-10-19T22:10:07.360Z,8.50
2018-10-19T22:12:36.173Z,8.50
2018-10-19T22:15:06.093Z,10.47
2018-10-19T22:17:35.006Z,7.67
2018-10-19T22:20:07.144Z,7.87
2018-10-19T22:22:35.980Z,8.23
2018-10-19T22:25:05.470Z,7.97
2018-10-19T22:27:34.306Z,7.07
2018-10-19T22:30:03.605Z,7.37
2018-10-19T22:32:32.403Z,7.10
2018-10-19T22:35:01.219Z,11.07
2018-10-19T22:37:30.021Z,8.40
2018-10-19T22:39:58.869Z,7.40
2018-10-19T22:42:27.773Z,6.97
2018-10-19T22:44:56.653Z,8.23
2018-10-19T22:47:25.516Z,7.67
2018-10-19T22:49:54.415Z,6.73
2018-10-19T22:52:23.735Z,6.87
2018-10-19T22:54:52.973Z,7.03
2018-10-19T22:57:21.804Z,7.97
2018-10-19T22:59:51.014Z,7.10
2018-10-19T23:02:19.898Z,7.10
2018-10-19T23:04:48.719Z,6.53
2018-10-19T23:07:17.576Z,7.63
2018-10-19T23:09:46.548Z,7.63
2018-10-19T23:12:15.334Z,7.27
2018-10-19T23:14:44.463Z,7.77
2018-10-19T23:17:13.364Z,6.80
2018-10-19T23:19:42.135Z,7.60
2018-10-19T23:22:11.335Z,8.00
2018-10-19T23:24:40.135Z,6.50
2018-10-19T23:27:08.978Z,7.03
2018-10-19T23:29:37.810Z,7.10
2018-10-19T23:32:06.748Z,6.90
2018-10-19T23:34:35.590Z,6.40
2018-10-19T23:37:04.748Z,6.85
2018-10-19T23:39:33.485Z,6.40
2018-10-19T23:42:02.326Z,7.23
2018-10-19T23:44:31.153Z,7.37
2018-10-19T23:47:00.015Z,7.55
2018-10-19T23:49:28.844Z,7.33
2018-10-19T23:51:57.673Z,6.33
2018-10-19T23:54:26.493Z,7.00
2018-10-19T23:56:55.358Z,7.47
2018-10-19T23:59:24.639Z,6.93
